Time;durP1;ratioP1;P1;durP2;ratioP2;P2;SDS_P1;SDS_P2;PMS_P1;PMS_P2;Temp;Humidity;BMP_temperature;BMP_pressure;BME280_temperature;BME280_humidity;BME280_pressure;Samples;Min_cycle;Max_cycle;Signal;HPM_P1;HPM_P2
2021/10/28 00:13:56;;;;;;;;;;;;;;;1.01;83.17;102155.94;1948195;74;20112;-61
2021/10/28 00:16:29;;;;;;;;;;;;;;;1.01;83.03;102150.75;1948112;74;20117;-61
2021/10/28 00:19:03;;;;;;;;;;;;;;;0.99;83.01;102149.84;1948197;74;20198;-61
2021/10/28 00:21:35;;;;;;;;;;;;;;;0.95;83.06;102155.81;1948015;74;20383;-62
2021/10/28 00:24:05;;;;;;;;;;;;;;;0.89;82.93;102154.38;1948077;74;20139;-62
2021/10/28 00:26:34;;;;;;;;;;;;;;;0.88;82.89;102153.91;1948040;74;20132;-62
2021/10/28 00:29:03;;;;;;;;;;;;;;;0.85;83.15;102161.61;1948082;74;20387;-62
2021/10/28 00:31:34;;;;;;;;;;;;;;;0.83;83.32;102156.80;1934193;74;20101;-62
2021/10/28 00:34:03;;;;;;;;;;;;;;;0.87;83.09;102159.95;1940026;74;20413;-62
2021/10/28 00:36:31;;;;;;;;;;;;;;;0.92;82.75;102160.91;1939948;74;20112;-62
2021/10/28 00:38:59;;;;;;;;;;;;;;;0.93;82.83;102167.87;1939928;74;20145;-62
2021/10/28 00:41:27;;;;;;;;;;;;;;;0.91;83.00;102169.55;1939921;74;20160;-63
2021/10/28 00:43:56;;;;;;;;;;;;;;;0.86;83.22;102168.13;1939885;74;20117;-62
2021/10/28 00:46:27;;;;;;;;;;;;;;;0.83;83.23;102171.07;1939833;74;20156;-63
2021/10/28 00:48:55;;;;;;;;;;;;;;;0.82;83.23;102177.11;1939923;74;20117;-62
2021/10/28 00:51:24;;;;;;;;;;;;;;;0.84;83.25;102178.02;1939908;74;20383;-62
2021/10/28 00:53:53;;;;;;;;;;;;;;;0.84;83.20;102181.91;1939937;74;20097;-62
2021/10/28 00:56:21;;;;;;;;;;;;;;;0.83;83.12;102178.84;1939947;74;20116;-63
2021/10/28 00:58:50;;;;;;;;;;;;;;;0.80;83.22;102181.39;1939806;74;20374;-63
2021/10/28 01:01:19;;;;;;;;;;;;;;;0.82;83.08;102181.00;1939998;74;20206;-62
2021/10/28 01:03:47;;;;;;;;;;;;;;;0.83;83.28;102178.45;1939890;74;20101;-62
2021/10/28 01:06:15;;;;;;;;;;;;;;;0.82;83.71;102175.81;1939883;74;20105;-62
2021/10/28 01:08:43;;;;;;;;;;;;;;;0.82;83.71;102178.41;1939847;74;20143;-62
2021/10/28 01:11:12;;;;;;;;;;;;;;;0.85;83.54;102181.05;1939874;74;20124;-62
2021/10/28 01:13:41;;;;;;;;;;;;;;;0.87;83.34;102185.45;1939799;74;20285;-63
2021/10/28 01:16:09;;;;;;;;;;;;;;;0.89;83.17;102189.39;1939883;74;20113;-62
2021/10/28 01:18:38;;;;;;;;;;;;;;;0.86;83.43;102186.71;1939894;74;20143;-62
2021/10/28 01:21:08;;;;;;;;;;;;;;;0.83;83.29;102184.94;1939869;74;20184;-63
2021/10/28 01:23:38;;;;;;;;;;;;;;;0.85;83.21;102178.06;1940004;74;20101;-63
2021/10/28 01:26:07;;;;;;;;;;;;;;;0.86;83.65;102178.94;1939772;74;20112;-63
2021/10/28 01:28:36;;;;;;;;;;;;;;;0.87;83.46;102184.16;1939894;74;20109;-63
2021/10/28 01:31:09;;;;;;;;;;;;;;;0.88;83.18;102179.84;1942566;73;20154;-63
2021/10/28 01:33:38;;;;;;;;;;;;;;;0.89;83.02;102177.72;1945686;74;20109;-63
2021/10/28 01:36:06;;;;;;;;;;;;;;;0.83;83.08;102178.84;1945733;74;20147;-62
2021/10/28 01:38:35;;;;;;;;;;;;;;;0.78;83.10;102183.07;1945659;74;20112;-63
2021/10/28 01:41:04;;;;;;;;;;;;;;;0.65;83.24;102178.87;1945572;74;20147;-63
2021/10/28 01:43:33;;;;;;;;;;;;;;;0.60;83.36;102184.78;1945698;74;20120;-63
2021/10/28 01:46:01;;;;;;;;;;;;;;;0.60;83.27;102186.08;1945747;73;20383;-63
2021/10/28 01:48:29;;;;;;;;;;;;;;;0.63;83.59;102185.73;1945735;74;20168;-63
2021/10/28 01:50:57;;;;;;;;;;;;;;;0.63;84.13;102184.84;1945666;74;20120;-63
2021/10/28 01:53:25;;;;;;;;;;;;;;;0.62;84.00;102186.56;1945636;74;20124;-63
2021/10/28 01:55:53;;;;;;;;;;;;;;;0.65;83.98;102191.83;1945724;74;20109;-63
2021/10/28 01:58:23;;;;;;;;;;;;;;;0.67;84.14;102191.45;1945734;74;20143;-63
2021/10/28 02:00:51;;;;;;;;;;;;;;;0.67;84.05;102194.04;1945646;74;20143;-62
2021/10/28 02:03:19;;;;;;;;;;;;;;;0.68;83.93;102198.41;1945729;74;20120;-63
2021/10/28 02:05:48;;;;;;;;;;;;;;;0.67;83.78;102203.11;1945647;74;20109;-63
2021/10/28 02:08:16;;;;;;;;;;;;;;;0.69;83.56;102201.86;1945735;74;20149;-62
2021/10/28 02:10:44;;;;;;;;;;;;;;;0.68;83.49;102206.18;1945797;74;20226;-63
2021/10/28 02:13:13;;;;;;;;;;;;;;;0.67;83.32;102201.81;1945807;74;20105;-62
2021/10/28 02:15:41;;;;;;;;;;;;;;;0.65;83.33;102206.09;1945982;74;20112;-62
2021/10/28 02:18:09;;;;;;;;;;;;;;;0.61;83.13;102212.04;1945810;74;20168;-64
2021/10/28 02:20:38;;;;;;;;;;;;;;;0.48;83.15;102209.95;1945893;74;20383;-62
2021/10/28 02:23:07;;;;;;;;;;;;;;;0.33;83.29;102211.33;1945887;74;20101;-62
2021/10/28 02:25:36;;;;;;;;;;;;;;;0.29;83.37;102212.48;1945993;74;20180;-62
2021/10/28 02:28:04;;;;;;;;;;;;;;;0.26;83.54;102211.09;1945837;74;20210;-62
2021/10/28 02:30:32;;;;;;;;;;;;;;;0.23;83.60;102216.21;1945786;74;20532;-63
2021/10/28 02:33:00;;;;;;;;;;;;;;;0.18;83.49;102219.56;1952481;73;20190;-61
2021/10/28 02:35:28;;;;;;;;;;;;;;;0.19;83.57;102217.84;1952509;73;20120;-62
2021/10/28 02:37:56;;;;;;;;;;;;;;;0.20;83.59;102218.28;1952561;73;20142;-62
2021/10/28 02:40:25;;;;;;;;;;;;;;;0.19;83.64;102219.13;1952468;73;20134;-62
2021/10/28 02:42:52;;;;;;;;;;;;;;;0.17;83.72;102224.27;1952451;73;20146;-62
2021/10/28 02:45:21;;;;;;;;;;;;;;;0.14;83.68;102224.59;1952325;73;20112;-62
2021/10/28 02:47:50;;;;;;;;;;;;;;;0.11;83.72;102227.99;1952621;73;20436;-61
2021/10/28 02:50:19;;;;;;;;;;;;;;;0.14;83.51;102238.84;1952411;73;20413;-62
2021/10/28 02:52:46;;;;;;;;;;;;;;;0.18;83.48;102239.38;1952430;73;20367;-62
2021/10/28 02:55:14;;;;;;;;;;;;;;;0.16;83.63;102241.05;1952405;73;20156;-62
2021/10/28 02:57:42;;;;;;;;;;;;;;;0.17;83.38;102245.42;1952345;73;20116;-64
2021/10/28 03:00:11;;;;;;;;;;;;;;;0.14;83.51;102245.32;1952406;73;20159;-62
2021/10/28 03:02:38;;;;;;;;;;;;;;;0.11;83.54;102246.52;1952496;73;20112;-63
2021/10/28 03:05:07;;;;;;;;;;;;;;;0.10;83.58;102243.48;1952392;73;20116;-62
2021/10/28 03:07:35;;;;;;;;;;;;;;;0.12;83.46;102246.99;1952400;73;20113;-62
2021/10/28 03:10:06;;;;;;;;;;;;;;;0.13;83.45;102246.14;1952397;73;20112;-62
2021/10/28 03:12:35;;;;;;;;;;;;;;;0.11;83.50;102243.53;1952302;73;20112;-62
2021/10/28 03:15:05;;;;;;;;;;;;;;;0.09;83.83;102246.90;1952294;73;20379;-63
2021/10/28 03:17:41;;;;;;;;;;;;;;;0.06;83.88;102246.41;1952461;73;20138;-62
2021/10/28 03:27:49;;;;;;;;;;;;;;;0.09;84.05;102240.42;1952380;73;20194;-62
2021/10/28 03:30:18;;;;;;;;;;;;;;;0.11;83.95;102243.92;1952442;73;20139;-62
2021/10/28 03:32:46;;;;;;;;;;;;;;;0.09;83.83;102241.72;1952487;73;20112;-61
2021/10/28 03:35:15;;;;;;;;;;;;;;;0.06;84.00;102242.95;1952273;73;20147;-61
2021/10/28 03:37:52;;;;;;;;;;;;;;;0.03;83.96;102242.84;1952400;73;20405;-62
2021/10/28 03:40:38;;;;;;;;;;;;;;;0.01;84.03;102243.22;1952152;73;20163;-62
2021/10/28 04:28:55;;;;;;;;;;;;;;;0.33;83.73;102268.33;1952491;73;20146;-63
2021/10/28 04:31:25;;;;;;;;;;;;;;;0.44;83.51;102267.72;1952380;73;20116;-63
2021/10/28 04:33:53;;;;;;;;;;;;;;;0.60;83.32;102267.30;1946424;73;20147;-63
2021/10/28 04:36:23;;;;;;;;;;;;;;;0.71;83.10;102276.66;1946109;74;20108;-63
2021/10/28 04:38:51;;;;;;;;;;;;;;;0.78;82.88;102275.13;1946345;74;20163;-61
2021/10/28 04:41:18;;;;;;;;;;;;;;;0.83;82.66;102277.39;1946152;74;20105;-63
2021/10/28 04:43:46;;;;;;;;;;;;;;;0.83;82.49;102282.58;1946105;72;20136;-62
2021/10/28 04:46:14;;;;;;;;;;;;;;;0.86;82.38;102282.66;1946044;74;20143;-62
2021/10/28 04:48:42;;;;;;;;;;;;;;;0.91;82.32;102290.16;1946157;74;20108;-61
2021/10/28 04:51:10;;;;;;;;;;;;;;;0.97;82.25;102290.30;1946216;74;20198;-62
2021/10/28 04:53:37;;;;;;;;;;;;;;;1.05;82.23;102292.69;1946074;74;20125;-62
2021/10/28 04:56:05;;;;;;;;;;;;;;;1.18;82.12;102295.56;1946125;74;20117;-63
2021/10/28 04:58:33;;;;;;;;;;;;;;;1.29;82.00;102295.39;1946115;74;20128;-62
2021/10/28 05:01:01;;;;;;;;;;;;;;;1.43;81.86;102296.61;1946025;74;20150;-62
2021/10/28 05:03:29;;;;;;;;;;;;;;;1.59;81.64;102295.27;1946104;74;20108;-62
2021/10/28 05:05:57;;;;;;;;;;;;;;;1.69;81.41;102292.44;1946114;74;20427;-62
2021/10/28 05:08:24;;;;;;;;;;;;;;;1.85;81.32;102299.73;1946108;74;20116;-62
2021/10/28 05:10:52;;;;;;;;;;;;;;;2.12;81.25;102299.86;1946106;74;20143;-62
2021/10/28 05:13:20;;;;;;;;;;;;;;;2.41;80.97;102304.78;1946013;74;20148;-62
2021/10/28 05:15:49;;;;;;;;;;;;;;;2.71;80.60;102303.17;1946066;74;20120;-62
2021/10/28 05:18:20;;;;;;;;;;;;;;;2.99;80.18;102301.97;1946091;74;20117;-62
2021/10/28 05:20:47;;;;;;;;;;;;;;;3.31;79.67;102305.53;1946185;74;20147;-63
2021/10/28 05:23:15;;;;;;;;;;;;;;;3.69;79.03;102309.16;1946208;74;20117;-62
2021/10/28 05:25:43;;;;;;;;;;;;;;;4.11;78.68;102302.75;1946065;74;20100;-63
2021/10/28 05:28:11;;;;;;;;;;;;;;;4.69;78.26;102308.23;1946056;74;20207;-62
2021/10/28 05:30:38;;;;;;;;;;;;;;;5.21;77.83;102316.10;1946105;74;20147;-63
2021/10/28 05:33:06;;;;;;;;;;;;;;;5.68;77.01;102324.28;1945917;73;20104;-62
2021/10/28 05:35:34;;;;;;;;;;;;;;;6.08;76.09;102317.58;1945694;74;20151;-63
2021/10/28 05:38:02;;;;;;;;;;;;;;;6.46;75.45;102314.26;1945846;74;20113;-62
2021/10/28 05:40:30;;;;;;;;;;;;;;;6.84;73.72;102312.59;1945660;74;20176;-62
2021/10/28 05:42:57;;;;;;;;;;;;;;;7.07;71.44;102313.50;1945759;74;20113;-63
2021/10/28 05:45:25;;;;;;;;;;;;;;;7.26;70.31;102312.20;1945848;74;20105;-63
2021/10/28 05:47:53;;;;;;;;;;;;;;;7.66;70.36;102311.72;1945896;74;20112;-62
2021/10/28 05:50:23;;;;;;;;;;;;;;;8.08;69.48;102309.88;1945823;74;20104;-62
2021/10/28 05:52:53;;;;;;;;;;;;;;;8.50;68.64;102313.23;1945924;74;20527;-62
2021/10/28 05:55:22;;;;;;;;;;;;;;;8.78;67.60;102317.00;1945830;74;20171;-62
2021/10/28 05:57:52;;;;;;;;;;;;;;;9.06;65.89;102316.81;1945992;74;20171;-62
2021/10/28 06:00:21;;;;;;;;;;;;;;;9.32;64.10;102317.05;1945979;74;20257;-62
2021/10/28 06:02:48;;;;;;;;;;;;;;;9.55;63.24;102311.11;1946000;74;20152;-62
2021/10/28 06:05:16;;;;;;;;;;;;;;;9.91;63.17;102312.95;1945842;74;20120;-62
2021/10/28 06:07:45;;;;;;;;;;;;;;;10.29;62.31;102312.95;1945879;74;20096;-63
2021/10/28 06:10:16;;;;;;;;;;;;;;;10.50;61.19;102309.19;1945873;74;20124;-65
2021/10/28 06:12:44;;;;;;;;;;;;;;;10.76;60.73;102304.86;1945849;74;20113;-65
2021/10/28 06:15:13;;;;;;;;;;;;;;;11.11;60.30;102300.80;1945820;74;20358;-65
2021/10/28 06:18:12;;;;;;;;;;;;;;;11.56;60.33;102305.30;1945856;74;20398;-65
2021/10/28 06:20:13;;;;;;;;;;;;;;;12.00;59.64;102300.13;1939521;74;20112;-64
2021/10/28 06:22:41;;;;;;;;;;;;;;;12.44;58.76;102297.00;1945805;74;20394;-62
2021/10/28 06:25:09;;;;;;;;;;;;;;;12.86;57.84;102300.44;1945908;74;20112;-62
2021/10/28 06:27:38;;;;;;;;;;;;;;;13.35;57.52;102298.83;1945856;74;20143;-62
2021/10/28 06:30:06;;;;;;;;;;;;;;;13.87;57.34;102297.45;1945821;74;20116;-61
2021/10/28 06:32:35;;;;;;;;;;;;;;;14.45;57.39;102289.56;1945823;74;20101;-61
2021/10/28 06:35:04;;;;;;;;;;;;;;;15.04;57.18;102294.77;1945753;73;20587;-61
2021/10/28 06:37:32;;;;;;;;;;;;;;;15.56;56.80;102285.95;1945856;74;20425;-60
2021/10/28 06:40:00;;;;;;;;;;;;;;;15.96;55.86;102292.52;1945837;74;20163;-60
2021/10/28 06:42:28;;;;;;;;;;;;;;;16.06;53.67;102284.59;1945855;74;20118;-60
2021/10/28 06:44:56;;;;;;;;;;;;;;;15.96;50.54;102292.52;1945883;74;20117;-60
2021/10/28 06:47:24;;;;;;;;;;;;;;;15.77;50.44;102285.23;1945746;74;20108;-60
2021/10/28 06:49:51;;;;;;;;;;;;;;;15.95;50.91;102285.02;1945831;74;20117;-61
2021/10/28 06:52:19;;;;;;;;;;;;;;;16.46;51.10;102276.43;1945846;74;20112;-61
2021/10/28 06:54:48;;;;;;;;;;;;;;;16.68;50.82;102278.25;1945842;74;20105;-61
2021/10/28 06:57:36;;;;;;;;;;;;;;;16.93;49.40;102278.13;1945976;74;20125;-63
2021/10/28 07:02:35;;;;;;;;;;;;;;;17.58;49.16;102274.92;1945796;73;20116;-63
2021/10/28 07:05:04;;;;;;;;;;;;;;;18.28;49.50;102274.02;1945857;74;20117;-63
2021/10/28 07:07:33;;;;;;;;;;;;;;;18.78;48.48;102274.70;1945996;74;20151;-63
2021/10/28 07:10:14;;;;;;;;;;;;;;;19.17;48.06;102276.81;1946043;74;20128;-62
2021/10/28 07:12:54;;;;;;;;;;;;;;;19.49;47.94;102277.81;1945687;73;20183;-62
2021/10/28 07:15:27;;;;;;;;;;;;;;;19.65;46.80;102268.05;1945623;74;20164;-62
2021/10/28 07:18:08;;;;;;;;;;;;;;;19.78;46.09;102270.11;1945089;73;20507;-62
2021/10/28 07:20:55;;;;;;;;;;;;;;;20.04;45.37;102264.19;1944539;73;20104;-63
2021/10/28 07:31:06;;;;;;;;;;;;;;;21.59;45.13;102265.08;1945843;74;20379;-62
2021/10/28 07:36:11;;;;;;;;;;;;;;;21.76;42.50;102258.70;1945797;74;20440;-62
2021/10/28 07:39:03;;;;;;;;;;;;;;;22.19;42.66;102252.43;1943401;73;20121;-62
2021/10/28 07:55:31;;;;;;;;;;;;;;;23.21;39.31;102245.75;1945760;74;20147;-62
2021/10/28 08:00:22;;;;;;;;;;;;;;;23.38;37.11;102247.26;1945820;74;20113;-63
2021/10/28 08:29:34;;;;;;;;;;;;;;;25.60;34.33;102239.82;1918568;75;20119;-61
2021/10/28 08:32:05;;;;;;;;;;;;;;;25.63;34.58;102243.14;1876479;75;20126;-60
2021/10/28 08:34:36;;;;;;;;;;;;;;;25.90;33.99;102233.83;1874154;77;20120;-60
2021/10/28 08:37:10;;;;;;;;;;;;;;;26.31;34.27;102236.86;1874139;75;20099;-61
2021/10/28 08:39:38;;;;;;;;;;;;;;;26.38;33.30;102235.37;1874165;77;20119;-60
2021/10/28 08:42:10;;;;;;;;;;;;;;;26.48;33.39;102234.95;1874078;77;20141;-60
2021/10/28 08:44:40;;;;;;;;;;;;;;;26.74;33.92;102235.98;1874219;76;20138;-60
2021/10/28 08:47:09;;;;;;;;;;;;;;;26.87;33.87;102232.63;1874204;76;20166;-60
2021/10/28 08:49:43;;;;;;;;;;;;;;;27.06;33.32;102231.06;1874146;76;20208;-60
2021/10/28 09:19:41;;;;;;;;;;;;;;;26.64;31.00;102203.50;1871259;76;20121;-60
2021/10/28 09:25:03;;;;;;;;;;;;;;;26.92;30.79;102201.99;1867558;76;20383;-60
2021/10/28 09:27:33;;;;;;;;;;;;;;;26.78;30.82;102200.95;1870091;76;20180;-60
2021/10/28 09:30:23;;;;;;;;;;;;;;;26.60;29.66;102193.95;1873940;76;20105;-60
2021/10/28 09:32:45;;;;;;;;;;;;;;;26.30;29.99;102190.58;1873785;75;20117;-60
2021/10/28 09:51:26;;;;;;;;;;;;;;;26.76;31.20;102190.31;1872777;76;20161;-60
2021/10/28 09:54:19;;;;;;;;;;;;;;;26.68;31.17;102191.94;1862362;76;20488;-60
2021/10/28 09:59:36;;;;;;;;;;;;;;;26.10;30.49;102186.36;1878097;76;20148;-60
2021/10/28 10:02:12;;;;;;;;;;;;;;;26.30;30.58;102182.47;1878207;76;20109;-60
2021/10/28 10:04:42;;;;;;;;;;;;;;;26.39;30.76;102183.05;1880415;76;20121;-59
2021/10/28 10:07:11;;;;;;;;;;;;;;;26.47;30.68;102185.14;1879989;76;20117;-60
2021/10/28 10:09:39;;;;;;;;;;;;;;;26.48;30.71;102183.63;1879569;76;20379;-60
2021/10/28 10:12:11;;;;;;;;;;;;;;;26.57;30.71;102184.20;1879698;76;20163;-60
2021/10/28 10:14:39;;;;;;;;;;;;;;;26.36;30.66;102179.28;1880738;75;20113;-60
2021/10/28 10:17:11;;;;;;;;;;;;;;;26.19;31.05;102179.31;1867033;76;20101;-59
2021/10/28 10:19:43;;;;;;;;;;;;;;;26.03;31.61;102182.95;1879817;76;20109;-60
2021/10/28 10:22:31;;;;;;;;;;;;;;;25.99;31.61;102175.59;1862027;76;20227;-60
2021/10/28 11:20:00;;;;;;;;;;;;;;;23.42;33.06;102173.01;1877802;76;20144;-60
2021/10/28 11:28:39;;;;;;;;;;;;;;;22.60;33.95;102175.56;1888462;76;20131;-60
2021/10/28 12:28:52;;;;;;;;;;;;;;;15.63;41.92;102191.89;1876570;76;20147;-60
2021/10/28 12:45:05;;;;;;;;;;;;;;;14.94;42.26;102201.86;1876850;76;20117;-60
2021/10/28 12:50:28;;;;;;;;;;;;;;;14.64;42.47;102199.75;1876826;76;20117;-60
2021/10/28 12:52:52;;;;;;;;;;;;;;;14.59;42.63;102193.30;1872416;76;20117;-60
2021/10/28 12:55:41;;;;;;;;;;;;;;;14.51;42.87;102196.60;1878093;75;20105;-60
2021/10/28 13:34:49;;;;;;;;;;;;;;;13.40;43.82;102203.88;1883907;76;20426;-60
2021/10/28 13:50:24;;;;;;;;;;;;;;;12.62;44.99;102204.10;1931776;74;20430;-60
2021/10/28 13:53:15;;;;;;;;;;;;;;;12.50;45.14;102189.86;1926407;74;20102;-60
2021/10/28 13:55:13;;;;;;;;;;;;;;;12.40;45.36;102201.56;1926349;74;20169;-59
2021/10/28 13:57:47;;;;;;;;;;;;;;;12.27;45.51;102199.19;1927926;73;20102;-60
2021/10/28 14:00:29;;;;;;;;;;;;;;;12.18;45.65;102197.22;1929391;74;20384;-60
2021/10/28 14:37:54;;;;;;;;;;;;;;;10.96;46.96;102198.28;1931924;74;20136;-60
2021/10/28 15:29:41;;;;;;;;;;;;;;;9.28;49.10;102226.83;1966377;73;20154;-61
2021/10/28 15:34:55;;;;;;;;;;;;;;;9.23;49.13;102235.20;1966419;73;20146;-61
2021/10/28 15:37:29;;;;;;;;;;;;;;;9.20;49.18;102239.16;1963790;73;20115;-62
2021/10/28 15:51:23;;;;;;;;;;;;;;;8.93;50.17;102245.52;1961948;73;20389;-65
2021/10/28 15:53:24;;;;;;;;;;;;;;;8.88;50.24;102249.06;1926915;74;20114;-65
2021/10/28 15:59:16;;;;;;;;;;;;;;;8.82;50.70;102255.68;1980199;72;20145;-68
2021/10/28 16:23:07;;;;;;;;;;;;;;;8.19;53.25;102285.33;1931710;74;20141;-64
2021/10/28 16:25:34;;;;;;;;;;;;;;;7.96;53.81;102288.92;1932550;72;20145;-64
2021/10/28 16:28:02;;;;;;;;;;;;;;;7.79;54.66;102289.42;1980044;72;20098;-64
2021/10/28 16:30:30;;;;;;;;;;;;;;;7.67;54.75;102293.83;1980039;72;20102;-63
2021/10/28 16:32:58;;;;;;;;;;;;;;;7.61;54.95;102289.88;1931600;74;20102;-64
2021/10/28 16:35:26;;;;;;;;;;;;;;;7.51;54.93;102290.79;1931704;74;20118;-64
2021/10/28 16:37:55;;;;;;;;;;;;;;;7.37;56.28;102295.16;1965537;73;20142;-64
2021/10/28 16:40:23;;;;;;;;;;;;;;;7.27;56.66;102289.94;1966204;73;20415;-64
2021/10/28 16:42:50;;;;;;;;;;;;;;;7.20;56.72;102286.02;1966223;73;20108;-64
2021/10/28 16:45:18;;;;;;;;;;;;;;;7.11;57.38;102289.05;1966317;73;20115;-64
2021/10/28 16:47:46;;;;;;;;;;;;;;;6.96;57.55;102292.53;1978962;72;20126;-64
2021/10/28 16:50:14;;;;;;;;;;;;;;;6.91;57.17;102289.03;1980102;72;20270;-62
2021/10/28 16:52:42;;;;;;;;;;;;;;;6.92;57.83;102291.23;1967704;72;20116;-64
2021/10/28 16:55:10;;;;;;;;;;;;;;;6.91;57.48;102297.34;1966320;73;20104;-66
2021/10/28 16:57:38;;;;;;;;;;;;;;;6.96;57.21;102289.92;1978171;72;20138;-64
2021/10/28 17:00:06;;;;;;;;;;;;;;;6.94;58.36;102287.73;1980058;72;20115;-66
2021/10/28 17:02:34;;;;;;;;;;;;;;;6.92;58.00;102285.56;1964872;72;20179;-66
2021/10/28 17:05:02;;;;;;;;;;;;;;;6.92;57.81;102279.45;1962017;73;20116;-69
2021/10/28 17:07:29;;;;;;;;;;;;;;;6.84;57.84;102280.77;1965385;73;20108;-68
2021/10/28 17:09:59;;;;;;;;;;;;;;;6.75;58.34;102280.72;1966250;73;20115;-63
2021/10/28 17:12:27;;;;;;;;;;;;;;;6.63;58.65;102274.17;1966241;73;20112;-63
2021/10/28 17:14:54;;;;;;;;;;;;;;;6.53;59.01;102278.08;1966188;73;20163;-63
2021/10/28 17:17:22;;;;;;;;;;;;;;;6.37;59.36;102274.98;1966181;73;20123;-62
2021/10/28 17:19:50;;;;;;;;;;;;;;;6.19;59.92;102279.70;1966267;73;20190;-67
2021/10/28 17:22:19;;;;;;;;;;;;;;;6.06;60.31;102277.48;1966243;73;20146;-62
2021/10/28 17:24:49;;;;;;;;;;;;;;;5.98;60.48;102275.27;1966264;73;20161;-60
2021/10/28 17:27:18;;;;;;;;;;;;;;;5.89;60.67;102269.53;1975771;72;20114;-60
2021/10/28 17:29:45;;;;;;;;;;;;;;;5.79;60.83;102269.92;1980101;72;20111;-61
2021/10/28 17:32:13;;;;;;;;;;;;;;;5.68;60.54;102269.41;1970603;72;20115;-60
2021/10/28 17:34:41;;;;;;;;;;;;;;;5.61;61.12;102267.20;1962854;73;20104;-60
2021/10/28 17:37:08;;;;;;;;;;;;;;;5.52;61.24;102273.68;1970430;72;20114;-60
2021/10/28 17:39:36;;;;;;;;;;;;;;;5.37;61.83;102272.70;1979742;72;20111;-63
2021/10/28 17:42:04;;;;;;;;;;;;;;;5.28;62.60;102277.86;1961637;72;20112;-63
2021/10/28 17:44:47;;;;;;;;;;;;;;;5.22;62.52;102282.61;1950497;73;20112;-62
2021/10/28 17:47:11;;;;;;;;;;;;;;;5.14;62.47;102282.96;1969674;72;20114;-61
2021/10/28 17:49:39;;;;;;;;;;;;;;;5.03;63.08;102281.59;1979987;72;20380;-59
2021/10/28 17:52:07;;;;;;;;;;;;;;;5.00;63.22;102285.47;1960628;72;20104;-63
2021/10/28 17:54:36;;;;;;;;;;;;;;;4.95;63.24;102287.16;1950458;74;20183;-60
2021/10/28 17:57:05;;;;;;;;;;;;;;;4.91;63.99;102285.83;1962627;73;20393;-59
2021/10/28 17:59:33;;;;;;;;;;;;;;;4.78;64.27;102289.61;1969751;73;20099;-59
2021/10/28 18:02:01;;;;;;;;;;;;;;;4.69;64.11;102285.61;1957887;73;20105;-61
2021/10/28 18:04:30;;;;;;;;;;;;;;;4.68;64.59;102292.11;1950503;74;20155;-60
2021/10/28 18:06:58;;;;;;;;;;;;;;;4.69;64.39;102287.35;1967698;72;20136;-59
2021/10/28 18:09:26;;;;;;;;;;;;;;;4.73;63.87;102290.44;1979849;72;20146;-59
2021/10/28 18:11:58;;;;;;;;;;;;;;;4.69;64.28;102287.35;1963195;72;20156;-59
2021/10/28 18:14:27;;;;;;;;;;;;;;;4.58;64.64;102290.71;1950449;74;20185;-61
2021/10/28 18:16:57;;;;;;;;;;;;;;;4.47;65.19;102287.12;1967224;72;20200;-61
2021/10/28 18:19:28;;;;;;;;;;;;;;;4.40;65.75;102289.20;1979869;72;20509;-64
2021/10/28 18:21:58;;;;;;;;;;;;;;;4.34;65.37;102289.15;1962052;71;20374;-62
2021/10/28 18:24:27;;;;;;;;;;;;;;;4.31;65.63;102282.58;1950452;73;20191;-62
2021/10/28 18:26:55;;;;;;;;;;;;;;;4.27;66.34;102286.02;1950520;73;20116;-61
2021/10/28 18:29:23;;;;;;;;;;;;;;;4.20;66.33;102291.14;1950480;73;20113;-63
2021/10/28 18:31:56;;;;;;;;;;;;;;;4.13;66.41;102294.55;1950363;74;20148;-62
2021/10/28 18:34:22;;;;;;;;;;;;;;;4.19;65.60;102292.02;1950026;73;20108;-63
2021/10/28 18:36:51;;;;;;;;;;;;;;;4.17;66.11;102298.05;1950443;74;20150;-61
2021/10/28 18:39:20;;;;;;;;;;;;;;;4.13;66.34;102304.08;1950416;74;20108;-61
2021/10/28 18:41:50;;;;;;;;;;;;;;;4.04;67.00;102306.17;1950438;74;20412;-61
2021/10/28 18:44:37;;;;;;;;;;;;;;;4.04;66.68;102306.17;1916953;73;20404;-61
2021/10/28 18:47:07;;;;;;;;;;;;;;;4.01;67.01;102307.42;1917122;75;20357;-60
2021/10/28 18:49:34;;;;;;;;;;;;;;;4.03;66.51;102309.61;1916883;75;20122;-61
2021/10/28 18:52:02;;;;;;;;;;;;;;;4.03;66.57;102309.18;1916857;75;20119;-60
2021/10/28 18:54:31;;;;;;;;;;;;;;;3.97;66.49;102314.76;1916907;75;20114;-61
2021/10/28 18:57:00;;;;;;;;;;;;;;;3.89;67.34;102304.64;1947026;73;20141;-61
2021/10/28 18:59:28;;;;;;;;;;;;;;;3.78;67.61;102307.98;1916987;75;20115;-60
2021/10/28 19:01:57;;;;;;;;;;;;;;;3.63;67.81;102315.56;1916861;75;20142;-61
2021/10/28 19:04:25;;;;;;;;;;;;;;;3.48;67.97;102304.48;1916864;75;20369;-61
2021/10/28 19:06:54;;;;;;;;;;;;;;;3.45;68.19;102310.53;1917002;75;20126;-61
2021/10/28 19:09:22;;;;;;;;;;;;;;;3.38;68.63;102313.89;1916801;73;20150;-61
2021/10/28 19:11:49;;;;;;;;;;;;;;;3.36;68.90;102315.59;1917003;75;20134;-61
2021/10/28 19:14:17;;;;;;;;;;;;;;;3.36;68.51;102313.43;1916895;75;20162;-62
2021/10/28 19:16:45;;;;;;;;;;;;;;;3.46;67.98;102312.70;1916900;75;20150;-64
2021/10/28 19:19:13;;;;;;;;;;;;;;;3.52;68.11;102311.48;1916229;75;20153;-64
2021/10/28 19:21:41;;;;;;;;;;;;;;;3.51;68.05;102305.84;1931490;74;20151;-62
2021/10/28 19:24:09;;;;;;;;;;;;;;;3.52;68.24;102298.90;1947846;74;20105;-64
2021/10/28 19:26:37;;;;;;;;;;;;;;;3.45;68.64;102297.52;1934085;74;20115;-65
2021/10/28 19:29:07;;;;;;;;;;;;;;;3.40;68.87;102300.90;1917037;74;20122;-62
2021/10/28 19:31:43;;;;;;;;;;;;;;;3.40;68.95;102298.30;1930100;74;20097;-66
2021/10/28 19:34:05;;;;;;;;;;;;;;;3.42;68.95;102297.89;1949173;72;20139;-66
2021/10/28 19:36:36;;;;;;;;;;;;;;;3.46;68.55;102299.25;1934936;74;20376;-66
2021/10/28 19:41:58;;;;;;;;;;;;;;;3.50;68.53;102304.08;1933101;72;20143;-66
2021/10/28 19:47:06;;;;;;;;;;;;;;;3.45;68.77;102305.33;1905909;73;20232;-63
2021/10/28 19:49:34;;;;;;;;;;;;;;;3.45;68.88;102301.42;1900474;75;20143;-62
2021/10/28 19:52:04;;;;;;;;;;;;;;;3.44;69.25;102300.95;1885292;75;20178;-63
2021/10/28 19:54:31;;;;;;;;;;;;;;;3.42;69.19;102296.16;1875415;76;20166;-62
2021/10/28 19:56:59;;;;;;;;;;;;;;;3.36;69.72;102297.80;1892109;75;20122;-65
2021/10/28 19:59:31;;;;;;;;;;;;;;;3.33;69.75;102299.91;1903425;74;20146;-65
2021/10/28 20:02:05;;;;;;;;;;;;;;;3.27;70.00;102295.92;1902199;74;20119;-62
2021/10/28 20:04:47;;;;;;;;;;;;;;;3.34;69.44;102297.77;1900038;75;20119;-62
2021/10/28 20:07:12;;;;;;;;;;;;;;;3.45;68.88;102299.25;1897923;75;20115;-62
2021/10/28 20:20:36;;;;;;;;;;;;;;;3.42;69.87;102303.97;1900530;75;20190;-63
2021/10/28 20:23:04;;;;;;;;;;;;;;;3.37;70.16;102299.11;1900536;75;20389;-62
2021/10/28 20:25:32;;;;;;;;;;;;;;;3.37;70.02;102300.84;1900439;75;20163;-63
2021/10/28 20:28:05;;;;;;;;;;;;;;;3.41;69.58;102293.12;1900456;75;20115;-63
2021/10/28 20:30:40;;;;;;;;;;;;;;;3.45;69.35;102294.91;1900462;75;20123;-63
2021/10/28 20:33:02;;;;;;;;;;;;;;;3.45;69.70;102293.61;1899707;75;20119;-62
2021/10/28 20:35:53;;;;;;;;;;;;;;;3.35;70.22;102295.61;1900435;75;20103;-62
2021/10/28 20:37:59;;;;;;;;;;;;;;;3.29;70.28;102298.13;1897124;75;20107;-62
2021/10/28 20:40:27;;;;;;;;;;;;;;;3.26;70.34;102292.86;1900423;75;20115;-63
2021/10/28 20:42:55;;;;;;;;;;;;;;;3.29;70.20;102289.88;1900482;75;20145;-62
2021/10/28 20:45:25;;;;;;;;;;;;;;;3.30;70.57;102292.05;1929408;74;20139;-62
2021/10/28 20:47:53;;;;;;;;;;;;;;;3.32;70.29;102295.58;1932228;74;20133;-62
2021/10/28 20:50:22;;;;;;;;;;;;;;;3.33;70.34;102292.10;1932238;74;20143;-62
2021/10/28 20:52:50;;;;;;;;;;;;;;;3.30;70.50;102289.44;1932217;74;20117;-62
2021/10/28 20:55:19;;;;;;;;;;;;;;;3.25;70.86;102286.78;1932245;74;20113;-62
2021/10/28 20:57:48;;;;;;;;;;;;;;;3.26;71.13;102284.64;1932156;74;20117;-63
2021/10/28 21:00:17;;;;;;;;;;;;;;;3.24;71.18;102281.55;1932162;74;20143;-62
2021/10/28 21:02:45;;;;;;;;;;;;;;;3.24;71.32;102288.05;1932240;74;20109;-62
2021/10/28 21:05:15;;;;;;;;;;;;;;;3.25;71.00;102288.08;1932235;74;20109;-63
2021/10/28 21:07:44;;;;;;;;;;;;;;;3.25;71.20;102293.72;1932211;74;20397;-63
2021/10/28 21:10:13;;;;;;;;;;;;;;;3.26;70.92;102292.86;1932215;74;20442;-63
2021/10/28 21:12:41;;;;;;;;;;;;;;;3.33;70.40;102286.90;1932296;74;20140;-62